Terminal Aerodrome Forecast
Issued by NWS Wakefield, VA

Home | Current Version | Previous Version | Text Only | Print | Product List | Glossary On
Versions: 1 2 3 4 5 6 7 8 9 10 11 12 13 14 15 16 17 18 19 20 21 22
457
FTUS41 KAKQ 291252 AAA
TAFORF
TAF AMD
KORF 291252Z 2913/3012 00000KT P6SM BKN009 OVC012
      TEMPO 2913/2914 SCT009 OVC012
     FM291400 27003KT P6SM BKN015
     FM291500 28007KT P6SM SCT250
     FM292000 35008KT P6SM SCT150
     FM292300 09008KT P6SM BKN050=

USA.gov is the U.S. government's official web portal to all federal, state and local government web resources and services.